sensor_id;sensor_type;location;lat;lon;timestamp;P1;durP1;ratioP1;P2;durP2;ratioP2
8423;SDS011;4249;49.072;9.770;2022-10-17T00:01:03;5.13;;;4.63;;
8423;SDS011;4249;49.072;9.770;2022-10-17T00:03:51;5.47;;;3.77;;
8423;SDS011;4249;49.072;9.770;2022-10-17T00:06:38;4.57;;;3.47;;
8423;SDS011;4249;49.072;9.770;2022-10-17T00:09:26;5.27;;;3.87;;
8423;SDS011;4249;49.072;9.770;2022-10-17T00:12:13;6.70;;;4.03;;
8423;SDS011;4249;49.072;9.770;2022-10-17T00:15:00;5.27;;;4.30;;
8423;SDS011;4249;49.072;9.770;2022-10-17T00:17:49;4.10;;;3.30;;
8423;SDS011;4249;49.072;9.770;2022-10-17T00:20:36;4.40;;;3.17;;
8423;SDS011;4249;49.072;9.770;2022-10-17T00:23:23;4.13;;;3.43;;
8423;SDS011;4249;49.072;9.770;2022-10-17T00:26:11;7.50;;;3.80;;
8423;SDS011;4249;49.072;9.770;2022-10-17T00:28:59;4.93;;;3.47;;
8423;SDS011;4249;49.072;9.770;2022-10-17T00:31:48;5.17;;;3.53;;
8423;SDS011;4249;49.072;9.770;2022-10-17T00:34:35;3.80;;;3.17;;
8423;SDS011;4249;49.072;9.770;2022-10-17T00:37:22;6.63;;;3.70;;
8423;SDS011;4249;49.072;9.770;2022-10-17T00:40:10;8.27;;;3.30;;
8423;SDS011;4249;49.072;9.770;2022-10-17T00:42:57;6.70;;;3.20;;
8423;SDS011;4249;49.072;9.770;2022-10-17T00:45:44;4.10;;;2.63;;
8423;SDS011;4249;49.072;9.770;2022-10-17T00:48:33;3.10;;;2.40;;
8423;SDS011;4249;49.072;9.770;2022-10-17T00:51:22;3.43;;;2.00;;
8423;SDS011;4249;49.072;9.770;2022-10-17T00:54:14;3.30;;;2.20;;
8423;SDS011;4249;49.072;9.770;2022-10-17T00:57:04;2.57;;;2.30;;
8423;SDS011;4249;49.072;9.770;2022-10-17T00:59:52;3.00;;;2.37;;
8423;SDS011;4249;49.072;9.770;2022-10-17T01:02:41;2.97;;;2.30;;
8423;SDS011;4249;49.072;9.770;2022-10-17T01:05:30;3.27;;;2.40;;
8423;SDS011;4249;49.072;9.770;2022-10-17T01:08:18;2.67;;;2.40;;
8423;SDS011;4249;49.072;9.770;2022-10-17T01:11:08;3.63;;;2.30;;
8423;SDS011;4249;49.072;9.770;2022-10-17T01:14:05;5.40;;;2.57;;
8423;SDS011;4249;49.072;9.770;2022-10-17T01:16:58;5.10;;;2.27;;
8423;SDS011;4249;49.072;9.770;2022-10-17T01:19:58;3.17;;;2.60;;
8423;SDS011;4249;49.072;9.770;2022-10-17T01:23:06;3.80;;;2.13;;
8423;SDS011;4249;49.072;9.770;2022-10-17T01:26:06;4.80;;;2.60;;
8423;SDS011;4249;49.072;9.770;2022-10-17T01:29:15;8.33;;;2.40;;
8423;SDS011;4249;49.072;9.770;2022-10-17T01:32:25;3.60;;;2.73;;
8423;SDS011;4249;49.072;9.770;2022-10-17T01:35:21;5.50;;;2.50;;
8423;SDS011;4249;49.072;9.770;2022-10-17T01:38:13;7.73;;;2.60;;
8423;SDS011;4249;49.072;9.770;2022-10-17T01:41:08;4.97;;;2.50;;
8423;SDS011;4249;49.072;9.770;2022-10-17T01:44:02;5.23;;;3.10;;
8423;SDS011;4249;49.072;9.770;2022-10-17T01:46:55;7.77;;;3.63;;
8423;SDS011;4249;49.072;9.770;2022-10-17T01:49:50;5.70;;;3.23;;
8423;SDS011;4249;49.072;9.770;2022-10-17T01:52:40;5.57;;;3.20;;
8423;SDS011;4249;49.072;9.770;2022-10-17T01:55:31;7.17;;;3.47;;
8423;SDS011;4249;49.072;9.770;2022-10-17T01:58:22;3.20;;;2.90;;
8423;SDS011;4249;49.072;9.770;2022-10-17T02:01:14;5.60;;;3.33;;
8423;SDS011;4249;49.072;9.770;2022-10-17T02:04:02;5.17;;;3.40;;
8423;SDS011;4249;49.072;9.770;2022-10-17T02:06:53;4.17;;;3.20;;
8423;SDS011;4249;49.072;9.770;2022-10-17T02:09:40;4.77;;;3.00;;
8423;SDS011;4249;49.072;9.770;2022-10-17T02:12:35;4.17;;;3.20;;
8423;SDS011;4249;49.072;9.770;2022-10-17T02:15:34;3.90;;;3.00;;
8423;SDS011;4249;49.072;9.770;2022-10-17T02:18:51;3.10;;;2.47;;
8423;SDS011;4249;49.072;9.770;2022-10-17T02:22:00;6.17;;;3.53;;
8423;SDS011;4249;49.072;9.770;2022-10-17T02:25:01;3.50;;;3.10;;
8423;SDS011;4249;49.072;9.770;2022-10-17T02:27:55;4.37;;;3.17;;
8423;SDS011;4249;49.072;9.770;2022-10-17T02:30:52;4.83;;;3.10;;
8423;SDS011;4249;49.072;9.770;2022-10-17T02:33:44;2.80;;;2.60;;
8423;SDS011;4249;49.072;9.770;2022-10-17T02:36:36;5.87;;;3.70;;
8423;SDS011;4249;49.072;9.770;2022-10-17T02:39:27;4.23;;;2.97;;
8423;SDS011;4249;49.072;9.770;2022-10-17T02:42:15;7.57;;;3.20;;
8423;SDS011;4249;49.072;9.770;2022-10-17T02:45:05;7.33;;;3.93;;
8423;SDS011;4249;49.072;9.770;2022-10-17T02:47:54;3.13;;;2.83;;
8423;SDS011;4249;49.072;9.770;2022-10-17T02:50:55;5.00;;;3.20;;
8423;SDS011;4249;49.072;9.770;2022-10-17T02:53:50;8.10;;;3.50;;
8423;SDS011;4249;49.072;9.770;2022-10-17T02:56:46;8.73;;;2.70;;
8423;SDS011;4249;49.072;9.770;2022-10-17T02:59:36;8.97;;;2.70;;
8423;SDS011;4249;49.072;9.770;2022-10-17T03:02:25;3.37;;;2.77;;
8423;SDS011;4249;49.072;9.770;2022-10-17T03:05:14;4.20;;;2.50;;
8423;SDS011;4249;49.072;9.770;2022-10-17T03:08:03;3.50;;;2.50;;
8423;SDS011;4249;49.072;9.770;2022-10-17T03:10:50;2.90;;;2.70;;
8423;SDS011;4249;49.072;9.770;2022-10-17T03:13:38;7.73;;;3.50;;
8423;SDS011;4249;49.072;9.770;2022-10-17T03:16:26;4.07;;;2.87;;
8423;SDS011;4249;49.072;9.770;2022-10-17T03:19:13;5.00;;;3.50;;
8423;SDS011;4249;49.072;9.770;2022-10-17T03:22:00;8.27;;;3.50;;
8423;SDS011;4249;49.072;9.770;2022-10-17T03:24:47;4.43;;;3.50;;
8423;SDS011;4249;49.072;9.770;2022-10-17T03:27:34;5.97;;;3.17;;
8423;SDS011;4249;49.072;9.770;2022-10-17T03:30:23;6.73;;;3.40;;
8423;SDS011;4249;49.072;9.770;2022-10-17T03:33:10;4.40;;;2.87;;
8423;SDS011;4249;49.072;9.770;2022-10-17T03:35:57;4.53;;;2.87;;
8423;SDS011;4249;49.072;9.770;2022-10-17T03:38:44;5.07;;;2.97;;
8423;SDS011;4249;49.072;9.770;2022-10-17T03:41:32;7.70;;;3.27;;
8423;SDS011;4249;49.072;9.770;2022-10-17T03:44:19;5.63;;;2.93;;
8423;SDS011;4249;49.072;9.770;2022-10-17T03:47:08;4.23;;;2.80;;
8423;SDS011;4249;49.072;9.770;2022-10-17T03:49:55;2.67;;;2.40;;
8423;SDS011;4249;49.072;9.770;2022-10-17T03:52:45;4.80;;;3.10;;
8423;SDS011;4249;49.072;9.770;2022-10-17T03:55:32;3.07;;;2.40;;
8423;SDS011;4249;49.072;9.770;2022-10-17T03:58:19;3.33;;;2.73;;
8423;SDS011;4249;49.072;9.770;2022-10-17T04:01:07;4.03;;;2.50;;
8423;SDS011;4249;49.072;9.770;2022-10-17T04:03:56;5.57;;;2.83;;
8423;SDS011;4249;49.072;9.770;2022-10-17T04:06:44;3.37;;;2.70;;
8423;SDS011;4249;49.072;9.770;2022-10-17T04:09:31;4.90;;;3.37;;
8423;SDS011;4249;49.072;9.770;2022-10-17T04:12:18;5.13;;;3.47;;
8423;SDS011;4249;49.072;9.770;2022-10-17T04:15:06;4.20;;;3.40;;
8423;SDS011;4249;49.072;9.770;2022-10-17T04:17:53;5.83;;;3.90;;
8423;SDS011;4249;49.072;9.770;2022-10-17T04:20:42;7.13;;;4.70;;
8423;SDS011;4249;49.072;9.770;2022-10-17T04:23:29;6.93;;;4.90;;
8423;SDS011;4249;49.072;9.770;2022-10-17T04:26:16;6.13;;;5.07;;
8423;SDS011;4249;49.072;9.770;2022-10-17T04:29:03;6.37;;;4.30;;
8423;SDS011;4249;49.072;9.770;2022-10-17T04:31:51;8.53;;;4.70;;
8423;SDS011;4249;49.072;9.770;2022-10-17T04:34:38;4.30;;;3.90;;
8423;SDS011;4249;49.072;9.770;2022-10-17T04:37:27;6.53;;;3.43;;
8423;SDS011;4249;49.072;9.770;2022-10-17T04:40:14;4.37;;;3.83;;
8423;SDS011;4249;49.072;9.770;2022-10-17T04:43:02;4.07;;;3.23;;
8423;SDS011;4249;49.072;9.770;2022-10-17T04:45:49;4.73;;;3.33;;
8423;SDS011;4249;49.072;9.770;2022-10-17T04:48:36;7.27;;;3.50;;
8423;SDS011;4249;49.072;9.770;2022-10-17T04:51:24;7.53;;;3.73;;
8423;SDS011;4249;49.072;9.770;2022-10-17T04:54:12;4.80;;;3.27;;
8423;SDS011;4249;49.072;9.770;2022-10-17T04:57:01;3.53;;;3.13;;
8423;SDS011;4249;49.072;9.770;2022-10-17T04:59:48;4.27;;;3.53;;
8423;SDS011;4249;49.072;9.770;2022-10-17T05:02:35;3.87;;;3.00;;
8423;SDS011;4249;49.072;9.770;2022-10-17T05:05:22;4.23;;;3.40;;
8423;SDS011;4249;49.072;9.770;2022-10-17T05:08:10;5.13;;;4.03;;
8423;SDS011;4249;49.072;9.770;2022-10-17T05:10:59;6.40;;;3.83;;
8423;SDS011;4249;49.072;9.770;2022-10-17T05:13:50;4.67;;;4.10;;
8423;SDS011;4249;49.072;9.770;2022-10-17T05:16:38;5.93;;;3.93;;
8423;SDS011;4249;49.072;9.770;2022-10-17T05:19:25;3.77;;;3.30;;
8423;SDS011;4249;49.072;9.770;2022-10-17T05:22:12;5.07;;;3.73;;
8423;SDS011;4249;49.072;9.770;2022-10-17T05:24:59;4.93;;;3.77;;
8423;SDS011;4249;49.072;9.770;2022-10-17T05:27:47;4.93;;;3.77;;
8423;SDS011;4249;49.072;9.770;2022-10-17T05:30:35;5.47;;;3.80;;
8423;SDS011;4249;49.072;9.770;2022-10-17T05:33:22;6.03;;;4.77;;
8423;SDS011;4249;49.072;9.770;2022-10-17T05:36:09;9.67;;;5.13;;
8423;SDS011;4249;49.072;9.770;2022-10-17T05:38:56;11.60;;;5.43;;
8423;SDS011;4249;49.072;9.770;2022-10-17T05:41:44;7.87;;;5.27;;
8423;SDS011;4249;49.072;9.770;2022-10-17T05:44:33;10.10;;;6.60;;
8423;SDS011;4249;49.072;9.770;2022-10-17T05:47:20;8.83;;;5.10;;
8423;SDS011;4249;49.072;9.770;2022-10-17T05:50:07;6.57;;;4.73;;
8423;SDS011;4249;49.072;9.770;2022-10-17T05:52:55;4.67;;;4.10;;
8423;SDS011;4249;49.072;9.770;2022-10-17T05:55:42;5.23;;;4.00;;
8423;SDS011;4249;49.072;9.770;2022-10-17T05:58:29;6.93;;;3.70;;
8423;SDS011;4249;49.072;9.770;2022-10-17T06:01:19;4.37;;;3.97;;
8423;SDS011;4249;49.072;9.770;2022-10-17T06:04:06;4.23;;;3.60;;
8423;SDS011;4249;49.072;9.770;2022-10-17T06:06:53;4.97;;;4.13;;
8423;SDS011;4249;49.072;9.770;2022-10-17T06:09:40;7.80;;;4.17;;
8423;SDS011;4249;49.072;9.770;2022-10-17T06:12:28;13.80;;;3.87;;
8423;SDS011;4249;49.072;9.770;2022-10-17T06:14:54;5.47;;;3.90;;
8423;SDS011;4249;49.072;9.770;2022-10-17T06:17:23;4.13;;;3.73;;
8423;SDS011;4249;49.072;9.770;2022-10-17T06:19:50;5.50;;;4.30;;
8423;SDS011;4249;49.072;9.770;2022-10-17T06:22:16;4.00;;;3.60;;
8423;SDS011;4249;49.072;9.770;2022-10-17T06:24:43;6.30;;;3.83;;
8423;SDS011;4249;49.072;9.770;2022-10-17T06:27:10;6.73;;;3.57;;
8423;SDS011;4249;49.072;9.770;2022-10-17T06:29:37;6.13;;;3.37;;
8423;SDS011;4249;49.072;9.770;2022-10-17T06:32:04;5.73;;;3.90;;
8423;SDS011;4249;49.072;9.770;2022-10-17T06:34:32;4.63;;;3.77;;
8423;SDS011;4249;49.072;9.770;2022-10-17T06:36:59;5.67;;;3.53;;
8423;SDS011;4249;49.072;9.770;2022-10-17T06:39:26;6.23;;;3.13;;
8423;SDS011;4249;49.072;9.770;2022-10-17T06:41:57;4.87;;;3.77;;
8423;SDS011;4249;49.072;9.770;2022-10-17T06:44:24;7.20;;;3.77;;
8423;SDS011;4249;49.072;9.770;2022-10-17T06:46:54;6.83;;;3.90;;
8423;SDS011;4249;49.072;9.770;2022-10-17T06:49:21;5.67;;;3.50;;
8423;SDS011;4249;49.072;9.770;2022-10-17T06:51:49;4.77;;;3.50;;
8423;SDS011;4249;49.072;9.770;2022-10-17T06:54:16;6.40;;;4.30;;
8423;SDS011;4249;49.072;9.770;2022-10-17T06:56:43;5.43;;;4.20;;
8423;SDS011;4249;49.072;9.770;2022-10-17T06:59:10;5.43;;;4.20;;
8423;SDS011;4249;49.072;9.770;2022-10-17T07:01:39;6.93;;;4.07;;
8423;SDS011;4249;49.072;9.770;2022-10-17T07:04:06;4.80;;;4.30;;
8423;SDS011;4249;49.072;9.770;2022-10-17T07:06:33;5.57;;;4.00;;
8423;SDS011;4249;49.072;9.770;2022-10-17T07:09:01;9.60;;;4.57;;
8423;SDS011;4249;49.072;9.770;2022-10-17T07:11:30;6.00;;;4.70;;
8423;SDS011;4249;49.072;9.770;2022-10-17T07:13:59;7.83;;;5.30;;
8423;SDS011;4249;49.072;9.770;2022-10-17T07:16:26;6.40;;;4.00;;
8423;SDS011;4249;49.072;9.770;2022-10-17T07:18:53;8.07;;;3.90;;
8423;SDS011;4249;49.072;9.770;2022-10-17T07:21:20;9.40;;;4.00;;
8423;SDS011;4249;49.072;9.770;2022-10-17T07:23:48;4.32;;;3.85;;
8423;SDS011;4249;49.072;9.770;2022-10-17T07:26:16;5.60;;;3.63;;
8423;SDS011;4249;49.072;9.770;2022-10-17T07:28:44;8.63;;;3.63;;
8423;SDS011;4249;49.072;9.770;2022-10-17T07:31:13;5.57;;;3.92;;
8423;SDS011;4249;49.072;9.770;2022-10-17T07:33:41;5.28;;;3.90;;
8423;SDS011;4249;49.072;9.770;2022-10-17T07:36:09;5.15;;;3.80;;
8423;SDS011;4249;49.072;9.770;2022-10-17T07:38:36;4.60;;;3.22;;
8423;SDS011;4249;49.072;9.770;2022-10-17T07:41:03;4.30;;;3.35;;
8423;SDS011;4249;49.072;9.770;2022-10-17T07:43:33;5.07;;;3.33;;
8423;SDS011;4249;49.072;9.770;2022-10-17T07:46:01;4.88;;;3.25;;
8423;SDS011;4249;49.072;9.770;2022-10-17T07:48:29;7.82;;;3.50;;
8423;SDS011;4249;49.072;9.770;2022-10-17T07:50:56;8.82;;;3.22;;
8423;SDS011;4249;49.072;9.770;2022-10-17T07:53:23;5.53;;;3.13;;
8423;SDS011;4249;49.072;9.770;2022-10-17T07:55:50;3.47;;;3.07;;
8423;SDS011;4249;49.072;9.770;2022-10-17T07:58:16;4.18;;;2.80;;
8423;SDS011;4249;49.072;9.770;2022-10-17T08:00:45;6.07;;;3.53;;
8423;SDS011;4249;49.072;9.770;2022-10-17T08:03:13;3.53;;;3.20;;
8423;SDS011;4249;49.072;9.770;2022-10-17T08:05:39;3.95;;;2.63;;
8423;SDS011;4249;49.072;9.770;2022-10-17T08:08:06;3.57;;;2.80;;
8423;SDS011;4249;49.072;9.770;2022-10-17T08:10:33;3.20;;;2.90;;
8423;SDS011;4249;49.072;9.770;2022-10-17T08:13:00;4.05;;;2.55;;
8423;SDS011;4249;49.072;9.770;2022-10-17T08:15:27;5.22;;;3.35;;
8423;SDS011;4249;49.072;9.770;2022-10-17T08:17:56;6.60;;;3.63;;
8423;SDS011;4249;49.072;9.770;2022-10-17T08:20:24;5.40;;;2.90;;
8423;SDS011;4249;49.072;9.770;2022-10-17T08:22:51;3.78;;;2.78;;
8423;SDS011;4249;49.072;9.770;2022-10-17T08:25:18;4.30;;;2.63;;
8423;SDS011;4249;49.072;9.770;2022-10-17T08:27:45;2.53;;;2.33;;
8423;SDS011;4249;49.072;9.770;2022-10-17T08:30:12;4.68;;;2.53;;
8423;SDS011;4249;49.072;9.770;2022-10-17T08:32:39;3.45;;;2.40;;
8423;SDS011;4249;49.072;9.770;2022-10-17T08:35:08;2.95;;;2.65;;
8423;SDS011;4249;49.072;9.770;2022-10-17T08:37:35;2.67;;;2.47;;
8423;SDS011;4249;49.072;9.770;2022-10-17T08:40:02;4.40;;;2.60;;
8423;SDS011;4249;49.072;9.770;2022-10-17T08:42:33;6.35;;;3.10;;
8423;SDS011;4249;49.072;9.770;2022-10-17T08:45:15;3.50;;;2.60;;
8423;SDS011;4249;49.072;9.770;2022-10-17T08:47:50;2.38;;;2.15;;
8423;SDS011;4249;49.072;9.770;2022-10-17T08:50:23;3.67;;;2.70;;
8423;SDS011;4249;49.072;9.770;2022-10-17T08:52:56;3.33;;;2.65;;
8423;SDS011;4249;49.072;9.770;2022-10-17T08:55:31;5.65;;;2.63;;
8423;SDS011;4249;49.072;9.770;2022-10-17T08:58:02;5.03;;;2.22;;
8423;SDS011;4249;49.072;9.770;2022-10-17T09:00:37;3.38;;;2.15;;
8423;SDS011;4249;49.072;9.770;2022-10-17T09:03:10;5.80;;;2.53;;
8423;SDS011;4249;49.072;9.770;2022-10-17T09:05:45;3.53;;;2.15;;
8423;SDS011;4249;49.072;9.770;2022-10-17T09:08:23;7.15;;;2.17;;
8423;SDS011;4249;49.072;9.770;2022-10-17T09:10:56;2.20;;;1.88;;
8423;SDS011;4249;49.072;9.770;2022-10-17T09:13:31;2.10;;;1.90;;
8423;SDS011;4249;49.072;9.770;2022-10-17T09:16:10;2.67;;;2.00;;
8423;SDS011;4249;49.072;9.770;2022-10-17T09:19:00;3.55;;;2.20;;
8423;SDS011;4249;49.072;9.770;2022-10-17T09:21:35;5.93;;;1.98;;
8423;SDS011;4249;49.072;9.770;2022-10-17T09:24:11;3.30;;;2.15;;
8423;SDS011;4249;49.072;9.770;2022-10-17T09:26:43;4.68;;;1.95;;
8423;SDS011;4249;49.072;9.770;2022-10-17T09:29:13;4.07;;;2.17;;
8423;SDS011;4249;49.072;9.770;2022-10-17T09:31:44;4.18;;;2.20;;
8423;SDS011;4249;49.072;9.770;2022-10-17T09:34:14;2.80;;;2.03;;
8423;SDS011;4249;49.072;9.770;2022-10-17T09:36:43;6.82;;;2.53;;
8423;SDS011;4249;49.072;9.770;2022-10-17T09:39:11;5.95;;;2.47;;
8423;SDS011;4249;49.072;9.770;2022-10-17T09:41:40;4.78;;;2.20;;
8423;SDS011;4249;49.072;9.770;2022-10-17T09:44:12;4.55;;;1.88;;
8423;SDS011;4249;49.072;9.770;2022-10-17T09:46:42;4.45;;;1.90;;
8423;SDS011;4249;49.072;9.770;2022-10-17T09:49:28;3.20;;;2.17;;
8423;SDS011;4249;49.072;9.770;2022-10-17T09:52:00;4.20;;;2.70;;
8423;SDS011;4249;49.072;9.770;2022-10-17T09:54:31;2.50;;;1.90;;
8423;SDS011;4249;49.072;9.770;2022-10-17T09:57:05;8.68;;;2.53;;
8423;SDS011;4249;49.072;9.770;2022-10-17T09:59:34;2.50;;;1.85;;
8423;SDS011;4249;49.072;9.770;2022-10-17T10:02:13;2.53;;;2.28;;
8423;SDS011;4249;49.072;9.770;2022-10-17T10:04:53;6.55;;;2.17;;
8423;SDS011;4249;49.072;9.770;2022-10-17T10:07:24;2.03;;;1.73;;
8423;SDS011;4249;49.072;9.770;2022-10-17T10:09:52;2.60;;;1.90;;
8423;SDS011;4249;49.072;9.770;2022-10-17T10:12:20;2.50;;;2.00;;
8423;SDS011;4249;49.072;9.770;2022-10-17T10:14:48;5.85;;;2.10;;
8423;SDS011;4249;49.072;9.770;2022-10-17T10:20:02;3.88;;;1.90;;
8423;SDS011;4249;49.072;9.770;2022-10-17T10:25:48;3.22;;;2.13;;
8423;SDS011;4249;49.072;9.770;2022-10-17T10:28:20;3.50;;;2.00;;
8423;SDS011;4249;49.072;9.770;2022-10-17T10:30:51;4.22;;;2.20;;
8423;SDS011;4249;49.072;9.770;2022-10-17T10:33:19;5.03;;;2.10;;
8423;SDS011;4249;49.072;9.770;2022-10-17T10:35:53;7.55;;;2.42;;
8423;SDS011;4249;49.072;9.770;2022-10-17T10:38:24;2.95;;;1.60;;
8423;SDS011;4249;49.072;9.770;2022-10-17T10:40:51;3.20;;;1.90;;
8423;SDS011;4249;49.072;9.770;2022-10-17T10:43:21;2.10;;;1.90;;
8423;SDS011;4249;49.072;9.770;2022-10-17T10:45:55;4.72;;;2.25;;
8423;SDS011;4249;49.072;9.770;2022-10-17T10:48:22;2.00;;;1.65;;
8423;SDS011;4249;49.072;9.770;2022-10-17T10:50:51;2.92;;;1.95;;
8423;SDS011;4249;49.072;9.770;2022-10-17T10:53:30;2.92;;;1.92;;
8423;SDS011;4249;49.072;9.770;2022-10-17T10:56:03;8.77;;;1.98;;
8423;SDS011;4249;49.072;9.770;2022-10-17T10:58:44;2.90;;;1.85;;
8423;SDS011;4249;49.072;9.770;2022-10-17T11:01:19;4.03;;;1.95;;
8423;SDS011;4249;49.072;9.770;2022-10-17T11:03:56;3.33;;;2.13;;
8423;SDS011;4249;49.072;9.770;2022-10-17T11:06:33;3.67;;;2.03;;
8423;SDS011;4249;49.072;9.770;2022-10-17T11:09:08;4.78;;;2.40;;
8423;SDS011;4249;49.072;9.770;2022-10-17T11:11:42;3.30;;;1.92;;
8423;SDS011;4249;49.072;9.770;2022-10-17T11:14:14;2.78;;;1.80;;
8423;SDS011;4249;49.072;9.770;2022-10-17T11:16:44;3.60;;;1.90;;
8423;SDS011;4249;49.072;9.770;2022-10-17T11:19:19;4.18;;;1.80;;
8423;SDS011;4249;49.072;9.770;2022-10-17T11:21:59;7.68;;;2.08;;
8423;SDS011;4249;49.072;9.770;2022-10-17T11:24:33;3.63;;;2.22;;
8423;SDS011;4249;49.072;9.770;2022-10-17T11:27:04;2.08;;;1.70;;
8423;SDS011;4249;49.072;9.770;2022-10-17T11:29:33;3.45;;;2.03;;
8423;SDS011;4249;49.072;9.770;2022-10-17T11:32:03;3.42;;;2.10;;
8423;SDS011;4249;49.072;9.770;2022-10-17T11:34:34;4.57;;;2.15;;
8423;SDS011;4249;49.072;9.770;2022-10-17T11:37:06;3.00;;;1.92;;
8423;SDS011;4249;49.072;9.770;2022-10-17T11:39:41;3.72;;;2.00;;
8423;SDS011;4249;49.072;9.770;2022-10-17T11:42:13;2.28;;;2.00;;
8423;SDS011;4249;49.072;9.770;2022-10-17T11:44:43;2.20;;;1.98;;
8423;SDS011;4249;49.072;9.770;2022-10-17T11:47:13;4.82;;;2.13;;
8423;SDS011;4249;49.072;9.770;2022-10-17T11:49:56;2.53;;;2.08;;
8423;SDS011;4249;49.072;9.770;2022-10-17T11:52:29;2.53;;;1.90;;
8423;SDS011;4249;49.072;9.770;2022-10-17T11:55:09;3.55;;;1.90;;
8423;SDS011;4249;49.072;9.770;2022-10-17T11:57:42;2.80;;;2.10;;
8423;SDS011;4249;49.072;9.770;2022-10-17T12:00:20;3.13;;;1.92;;
8423;SDS011;4249;49.072;9.770;2022-10-17T12:02:58;3.42;;;1.88;;
8423;SDS011;4249;49.072;9.770;2022-10-17T12:05:32;4.55;;;1.73;;
8423;SDS011;4249;49.072;9.770;2022-10-17T12:08:11;2.42;;;1.95;;
8423;SDS011;4249;49.072;9.770;2022-10-17T12:10:49;3.72;;;1.98;;
8423;SDS011;4249;49.072;9.770;2022-10-17T12:19:22;3.50;;;1.58;;
8423;SDS011;4249;49.072;9.770;2022-10-17T12:21:53;3.28;;;1.90;;
8423;SDS011;4249;49.072;9.770;2022-10-17T12:24:24;2.72;;;1.80;;
8423;SDS011;4249;49.072;9.770;2022-10-17T12:27:11;2.35;;;1.92;;
8423;SDS011;4249;49.072;9.770;2022-10-17T12:30:02;3.15;;;2.15;;
8423;SDS011;4249;49.072;9.770;2022-10-17T12:32:32;2.55;;;1.77;;
8423;SDS011;4249;49.072;9.770;2022-10-17T12:34:59;4.18;;;1.80;;
8423;SDS011;4249;49.072;9.770;2022-10-17T12:40:50;5.72;;;1.90;;
8423;SDS011;4249;49.072;9.770;2022-10-17T12:43:34;2.97;;;2.05;;
8423;SDS011;4249;49.072;9.770;2022-10-17T12:46:22;2.13;;;1.80;;
8423;SDS011;4249;49.072;9.770;2022-10-17T12:49:21;3.78;;;1.80;;
8423;SDS011;4249;49.072;9.770;2022-10-17T12:54:57;3.92;;;1.80;;
8423;SDS011;4249;49.072;9.770;2022-10-17T12:57:32;3.08;;;1.95;;
8423;SDS011;4249;49.072;9.770;2022-10-17T13:00:11;4.20;;;1.92;;
8423;SDS011;4249;49.072;9.770;2022-10-17T13:02:41;7.93;;;2.20;;
8423;SDS011;4249;49.072;9.770;2022-10-17T13:05:10;2.75;;;1.85;;
8423;SDS011;4249;49.072;9.770;2022-10-17T13:07:42;6.07;;;1.80;;
8423;SDS011;4249;49.072;9.770;2022-10-17T13:10:19;5.30;;;1.95;;
8423;SDS011;4249;49.072;9.770;2022-10-17T13:12:48;4.95;;;2.00;;
8423;SDS011;4249;49.072;9.770;2022-10-17T13:15:18;2.67;;;2.08;;
8423;SDS011;4249;49.072;9.770;2022-10-17T13:17:53;5.60;;;2.10;;
8423;SDS011;4249;49.072;9.770;2022-10-17T13:20:23;2.72;;;1.80;;
8423;SDS011;4249;49.072;9.770;2022-10-17T13:22:52;6.68;;;2.03;;
8423;SDS011;4249;49.072;9.770;2022-10-17T13:25:21;2.42;;;1.83;;
8423;SDS011;4249;49.072;9.770;2022-10-17T13:27:49;2.25;;;1.88;;
8423;SDS011;4249;49.072;9.770;2022-10-17T13:30:29;2.88;;;2.10;;
8423;SDS011;4249;49.072;9.770;2022-10-17T13:32:57;4.07;;;2.00;;
8423;SDS011;4249;49.072;9.770;2022-10-17T13:35:26;6.00;;;1.90;;
8423;SDS011;4249;49.072;9.770;2022-10-17T13:37:54;3.65;;;1.92;;
8423;SDS011;4249;49.072;9.770;2022-10-17T13:40:23;4.15;;;1.80;;
8423;SDS011;4249;49.072;9.770;2022-10-17T13:42:52;3.45;;;1.90;;
8423;SDS011;4249;49.072;9.770;2022-10-17T13:45:23;4.43;;;2.13;;
8423;SDS011;4249;49.072;9.770;2022-10-17T13:47:55;5.30;;;2.45;;
8423;SDS011;4249;49.072;9.770;2022-10-17T13:50:24;2.78;;;2.17;;
8423;SDS011;4249;49.072;9.770;2022-10-17T13:53:06;6.38;;;2.42;;
8423;SDS011;4249;49.072;9.770;2022-10-17T13:55:35;6.75;;;2.17;;
8423;SDS011;4249;49.072;9.770;2022-10-17T13:58:08;2.38;;;1.90;;
8423;SDS011;4249;49.072;9.770;2022-10-17T14:00:40;6.78;;;2.28;;
8423;SDS011;4249;49.072;9.770;2022-10-17T14:03:08;2.83;;;2.03;;
8423;SDS011;4249;49.072;9.770;2022-10-17T14:05:35;4.63;;;2.38;;
8423;SDS011;4249;49.072;9.770;2022-10-17T14:08:45;2.55;;;2.05;;
8423;SDS011;4249;49.072;9.770;2022-10-17T14:11:29;4.00;;;2.03;;
8423;SDS011;4249;49.072;9.770;2022-10-17T14:13:59;4.60;;;2.08;;
8423;SDS011;4249;49.072;9.770;2022-10-17T14:16:32;3.65;;;2.53;;
8423;SDS011;4249;49.072;9.770;2022-10-17T14:19:02;3.80;;;2.30;;
8423;SDS011;4249;49.072;9.770;2022-10-17T14:21:30;2.22;;;2.05;;
8423;SDS011;4249;49.072;9.770;2022-10-17T14:24:13;2.80;;;2.13;;
8423;SDS011;4249;49.072;9.770;2022-10-17T14:26:48;4.03;;;2.20;;
8423;SDS011;4249;49.072;9.770;2022-10-17T14:29:20;3.78;;;2.00;;
8423;SDS011;4249;49.072;9.770;2022-10-17T14:31:49;4.05;;;2.28;;
8423;SDS011;4249;49.072;9.770;2022-10-17T14:34:25;2.97;;;2.10;;
8423;SDS011;4249;49.072;9.770;2022-10-17T14:36:56;2.95;;;2.30;;
8423;SDS011;4249;49.072;9.770;2022-10-17T14:39:24;3.40;;;2.35;;
8423;SDS011;4249;49.072;9.770;2022-10-17T14:41:52;3.45;;;2.45;;
8423;SDS011;4249;49.072;9.770;2022-10-17T14:44:20;5.45;;;2.50;;
8423;SDS011;4249;49.072;9.770;2022-10-17T14:46:52;5.38;;;2.47;;
8423;SDS011;4249;49.072;9.770;2022-10-17T14:49:27;3.22;;;2.40;;
8423;SDS011;4249;49.072;9.770;2022-10-17T14:52:22;3.70;;;2.60;;
8423;SDS011;4249;49.072;9.770;2022-10-17T14:54:51;7.82;;;2.95;;
8423;SDS011;4249;49.072;9.770;2022-10-17T14:57:21;4.18;;;2.03;;
8423;SDS011;4249;49.072;9.770;2022-10-17T14:59:50;4.50;;;2.47;;
8423;SDS011;4249;49.072;9.770;2022-10-17T15:02:17;3.95;;;2.58;;
8423;SDS011;4249;49.072;9.770;2022-10-17T15:04:46;5.55;;;2.80;;
8423;SDS011;4249;49.072;9.770;2022-10-17T15:07:13;3.40;;;2.50;;
8423;SDS011;4249;49.072;9.770;2022-10-17T15:09:41;5.43;;;2.10;;
8423;SDS011;4249;49.072;9.770;2022-10-17T15:12:11;4.90;;;2.50;;
8423;SDS011;4249;49.072;9.770;2022-10-17T15:14:40;3.67;;;2.70;;
8423;SDS011;4249;49.072;9.770;2022-10-17T15:17:12;3.80;;;2.30;;
8423;SDS011;4249;49.072;9.770;2022-10-17T15:20:07;3.10;;;2.20;;
8423;SDS011;4249;49.072;9.770;2022-10-17T15:22:58;3.00;;;2.42;;
8423;SDS011;4249;49.072;9.770;2022-10-17T15:25:46;2.83;;;2.42;;
8423;SDS011;4249;49.072;9.770;2022-10-17T15:28:33;3.92;;;2.58;;
8423;SDS011;4249;49.072;9.770;2022-10-17T15:31:21;6.40;;;2.40;;
8423;SDS011;4249;49.072;9.770;2022-10-17T15:34:10;4.70;;;2.17;;
8423;SDS011;4249;49.072;9.770;2022-10-17T15:36:58;5.38;;;2.70;;
8423;SDS011;4249;49.072;9.770;2022-10-17T15:39:46;2.60;;;2.30;;
8423;SDS011;4249;49.072;9.770;2022-10-17T15:42:37;3.83;;;2.10;;
8423;SDS011;4249;49.072;9.770;2022-10-17T15:45:24;5.20;;;2.25;;
8423;SDS011;4249;49.072;9.770;2022-10-17T15:48:15;5.35;;;2.17;;
8423;SDS011;4249;49.072;9.770;2022-10-17T15:51:05;3.97;;;2.60;;
8423;SDS011;4249;49.072;9.770;2022-10-17T15:53:54;3.75;;;2.83;;
8423;SDS011;4249;49.072;9.770;2022-10-17T15:56:41;4.07;;;2.13;;
8423;SDS011;4249;49.072;9.770;2022-10-17T15:59:32;3.50;;;2.92;;
8423;SDS011;4249;49.072;9.770;2022-10-17T16:02:20;5.85;;;2.67;;
8423;SDS011;4249;49.072;9.770;2022-10-17T16:05:11;4.72;;;2.35;;
8423;SDS011;4249;49.072;9.770;2022-10-17T16:08:01;4.50;;;2.85;;
8423;SDS011;4249;49.072;9.770;2022-10-17T16:10:49;4.45;;;2.47;;
8423;SDS011;4249;49.072;9.770;2022-10-17T16:13:37;4.57;;;2.75;;
8423;SDS011;4249;49.072;9.770;2022-10-17T16:16:25;5.45;;;2.85;;
8423;SDS011;4249;49.072;9.770;2022-10-17T16:19:14;4.13;;;2.85;;
8423;SDS011;4249;49.072;9.770;2022-10-17T16:22:01;3.40;;;2.15;;
8423;SDS011;4249;49.072;9.770;2022-10-17T16:24:50;2.60;;;2.40;;
8423;SDS011;4249;49.072;9.770;2022-10-17T16:27:44;2.85;;;2.10;;
8423;SDS011;4249;49.072;9.770;2022-10-17T16:30:32;3.88;;;2.75;;
8423;SDS011;4249;49.072;9.770;2022-10-17T16:33:23;4.25;;;3.05;;
8423;SDS011;4249;49.072;9.770;2022-10-17T16:36:10;3.95;;;2.33;;
8423;SDS011;4249;49.072;9.770;2022-10-17T16:38:57;3.47;;;2.58;;
8423;SDS011;4249;49.072;9.770;2022-10-17T16:41:44;2.33;;;2.15;;
8423;SDS011;4249;49.072;9.770;2022-10-17T16:44:34;4.32;;;2.75;;
8423;SDS011;4249;49.072;9.770;2022-10-17T16:47:21;3.03;;;2.45;;
8423;SDS011;4249;49.072;9.770;2022-10-17T16:50:09;7.38;;;3.15;;